Brooklyn Park, Minnesota
Current Conditions -  °F | °C
As of 7:53 AM on Sunday 25 Jan 2015 (Local Time) from KMIC Reporting Station
Clear Clear  
Wind Chill:   Ceiling: Unl
Heat Index: 21°   Visibility: 10mi
Dew Point: 13°   Wind: 12mph
Humidity: 71%   Direction: 50°NE
Pressure: 29.94"   Gusts: NA
Location:  45.11°N, 93.35°W
Report Text: KMIC 251353Z 05010KT 10SM CLR M06/M11 A2994 RMK AO2 SLP151 T10611106
Loading
Personal Weather Stations






























Interactive Weather Map New forecast layout! Learn more

10-Day Weather Forecast

Advertisements
Track Severe Weather on mobile